createdAt,value
2018-07-24T00:00:04.432Z,1017.96
2018-07-24T00:00:29.998Z,1017.97
2018-07-24T00:00:55.566Z,1017.96
2018-07-24T00:01:21.137Z,1017.96
2018-07-24T00:01:46.696Z,1017.94
2018-07-24T00:02:12.267Z,1017.94
2018-07-24T00:02:37.824Z,1017.96
2018-07-24T00:03:03.391Z,1017.98
2018-07-24T00:03:28.982Z,1017.96
2018-07-24T00:03:54.534Z,1017.98
2018-07-24T00:04:20.093Z,1017.93
2018-07-24T00:04:45.690Z,1017.94
2018-07-24T00:05:11.254Z,1017.92
2018-07-24T00:05:36.860Z,1017.89
2018-07-24T00:06:02.432Z,1017.92
2018-07-24T00:06:27.999Z,1017.92
2018-07-24T00:06:53.584Z,1017.88
2018-07-24T00:07:19.160Z,1017.87
2018-07-24T00:07:44.731Z,1017.9
2018-07-24T00:08:10.304Z,1017.85
2018-07-24T00:08:35.883Z,1017.89
2018-07-24T00:09:01.460Z,1017.87
2018-07-24T00:09:27.046Z,1017.85
2018-07-24T00:09:52.619Z,1017.86
2018-07-24T00:10:18.194Z,1017.81
2018-07-24T00:10:43.758Z,1017.8
2018-07-24T00:11:09.339Z,1017.8
2018-07-24T00:11:34.917Z,1017.83
2018-07-24T00:12:00.493Z,1017.81
2018-07-24T00:12:26.054Z,1017.78
2018-07-24T00:12:51.645Z,1017.82
2018-07-24T00:13:17.226Z,1017.76
2018-07-24T00:13:42.810Z,1017.78
2018-07-24T00:14:08.426Z,1017.76
2018-07-24T00:14:33.980Z,1017.82
2018-07-24T00:14:59.551Z,1017.76
2018-07-24T00:15:25.135Z,1017.77
2018-07-24T00:15:50.714Z,1017.8
2018-07-24T00:16:16.297Z,1017.78
2018-07-24T00:16:41.847Z,1017.77
2018-07-24T00:17:07.418Z,1017.76
2018-07-24T00:17:32.991Z,1017.79
2018-07-24T00:17:58.573Z,1017.75
2018-07-24T00:18:24.151Z,1017.76
2018-07-24T00:18:49.732Z,1017.81
2018-07-24T00:19:15.300Z,1017.75
2018-07-24T00:19:40.873Z,1017.8
2018-07-24T00:20:06.451Z,1017.77
2018-07-24T00:20:32.051Z,1017.79
2018-07-24T00:20:57.609Z,1017.78
2018-07-24T00:21:23.185Z,1017.77
2018-07-24T00:21:48.753Z,1017.71
2018-07-24T00:22:14.339Z,1017.73
2018-07-24T00:22:39.911Z,1017.74
2018-07-24T00:23:05.487Z,1017.74
2018-07-24T00:23:31.049Z,1017.73
2018-07-24T00:23:56.663Z,1017.71
2018-07-24T00:24:22.225Z,1017.71
2018-07-24T00:24:47.807Z,1017.73
2018-07-24T00:25:13.390Z,1017.7
2018-07-24T00:25:38.975Z,1017.69
2018-07-24T00:26:04.551Z,1017.74
2018-07-24T00:26:30.139Z,1017.7
2018-07-24T00:26:55.692Z,1017.72
2018-07-24T00:27:21.271Z,1017.72
2018-07-24T00:27:46.850Z,1017.72
2018-07-24T00:28:12.433Z,1017.74
2018-07-24T00:28:37.997Z,1017.76
2018-07-24T00:29:03.573Z,1017.74
2018-07-24T00:29:29.154Z,1017.72
2018-07-24T00:29:54.713Z,1017.75
2018-07-24T00:30:21.164Z,1017.74
2018-07-24T00:30:45.851Z,1017.75
2018-07-24T00:31:11.430Z,1017.7
2018-07-24T00:31:37.040Z,1017.74
2018-07-24T00:32:02.654Z,1017.77
2018-07-24T00:32:28.169Z,1017.72
2018-07-24T00:32:53.739Z,1017.71
2018-07-24T00:33:19.299Z,1017.74
2018-07-24T00:33:44.867Z,1017.74
2018-07-24T00:34:10.441Z,1017.75
2018-07-24T00:34:36.025Z,1017.77
2018-07-24T00:35:01.581Z,1017.76
2018-07-24T00:35:27.141Z,1017.76
2018-07-24T00:35:52.709Z,1017.73
2018-07-24T00:36:18.313Z,1017.73
2018-07-24T00:36:43.874Z,1017.7
2018-07-24T00:37:09.459Z,1017.74
2018-07-24T00:37:35.037Z,1017.71
2018-07-24T00:38:00.617Z,1017.69
2018-07-24T00:38:26.185Z,1017.71
2018-07-24T00:38:51.761Z,1017.69
2018-07-24T00:39:17.327Z,1017.68
2018-07-24T00:39:42.898Z,1017.71
2018-07-24T00:40:08.466Z,1017.7
2018-07-24T00:40:34.035Z,1017.7
2018-07-24T00:40:59.621Z,1017.64
2018-07-24T00:41:25.201Z,1017.7
2018-07-24T00:41:50.777Z,1017.66
2018-07-24T00:42:16.355Z,1017.7
2018-07-24T00:42:41.923Z,1017.68
2018-07-24T00:43:07.538Z,1017.71
2018-07-24T00:43:33.082Z,1017.72
2018-07-24T00:43:58.664Z,1017.7
2018-07-24T00:44:24.223Z,1017.69
2018-07-24T00:44:49.831Z,1017.7
2018-07-24T00:45:15.405Z,1017.72
2018-07-24T00:45:40.985Z,1017.72
2018-07-24T00:46:06.535Z,1017.76
2018-07-24T00:46:32.107Z,1017.77
2018-07-24T00:46:57.677Z,1017.73
2018-07-24T00:47:23.252Z,1017.74
2018-07-24T00:47:48.833Z,1017.74
2018-07-24T00:48:14.395Z,1017.77
2018-07-24T00:48:39.987Z,1017.79
2018-07-24T00:49:05.579Z,1017.78
2018-07-24T00:49:31.171Z,1017.8
2018-07-24T00:49:56.749Z,1017.73
2018-07-24T00:50:22.334Z,1017.77
2018-07-24T00:50:47.901Z,1017.79
2018-07-24T00:51:13.478Z,1017.77
2018-07-24T00:51:39.042Z,1017.74
2018-07-24T00:52:04.631Z,1017.73
2018-07-24T00:52:30.215Z,1017.73
2018-07-24T00:52:55.789Z,1017.76
2018-07-24T00:53:21.373Z,1017.73
2018-07-24T00:53:46.953Z,1017.75
2018-07-24T00:54:12.607Z,1017.72
2018-07-24T00:54:38.099Z,1017.71
2018-07-24T00:55:03.694Z,1017.69
2018-07-24T00:55:29.275Z,1017.68
2018-07-24T00:55:54.841Z,1017.68
2018-07-24T00:56:20.408Z,1017.68
2018-07-24T00:56:46.011Z,1017.69
2018-07-24T00:57:11.583Z,1017.72
2018-07-24T00:57:37.192Z,1017.7
2018-07-24T00:58:02.771Z,1017.71
2018-07-24T00:58:28.333Z,1017.71
2018-07-24T00:58:53.905Z,1017.67
2018-07-24T00:59:19.487Z,1017.75
2018-07-24T00:59:45.067Z,1017.73
2018-07-24T01:00:10.626Z,1017.71
2018-07-24T01:00:36.239Z,1017.68
2018-07-24T01:01:01.809Z,1017.71
2018-07-24T01:01:27.386Z,1017.68
2018-07-24T01:01:52.957Z,1017.69
2018-07-24T01:02:18.591Z,1017.63
2018-07-24T01:02:44.159Z,1017.64
2018-07-24T01:03:09.731Z,1017.72
2018-07-24T01:03:35.311Z,1017.65
2018-07-24T01:04:00.898Z,1017.67
2018-07-24T01:04:26.475Z,1017.64
2018-07-24T01:04:52.055Z,1017.66
2018-07-24T01:05:17.623Z,1017.65
2018-07-24T01:05:43.205Z,1017.65
2018-07-24T01:06:08.788Z,1017.69
2018-07-24T01:06:34.347Z,1017.68
2018-07-24T01:06:59.919Z,1017.7
2018-07-24T01:07:25.491Z,1017.65
2018-07-24T01:07:51.071Z,1017.65
2018-07-24T01:08:16.635Z,1017.68
2018-07-24T01:08:42.230Z,1017.69
2018-07-24T01:09:07.782Z,1017.68
2018-07-24T01:09:33.365Z,1017.67
2018-07-24T01:09:58.951Z,1017.67
2018-07-24T01:10:24.503Z,1017.68
2018-07-24T01:10:50.134Z,1017.65
2018-07-24T01:11:15.687Z,1017.57
2018-07-24T01:11:41.260Z,1017.67
2018-07-24T01:12:06.833Z,1017.62
2018-07-24T01:12:32.398Z,1017.64
2018-07-24T01:12:57.985Z,1017.63
2018-07-24T01:13:23.564Z,1017.62
2018-07-24T01:13:49.112Z,1017.62
2018-07-24T01:14:14.697Z,1017.62
2018-07-24T01:14:40.259Z,1017.61
2018-07-24T01:15:05.873Z,1017.58
2018-07-24T01:15:31.399Z,1017.6
2018-07-24T01:15:56.978Z,1017.61
2018-07-24T01:16:22.548Z,1017.6
2018-07-24T01:16:48.157Z,1017.59
2018-07-24T01:17:13.697Z,1017.61
2018-07-24T01:17:39.281Z,1017.59
2018-07-24T01:18:04.855Z,1017.6
2018-07-24T01:18:30.421Z,1017.57
2018-07-24T01:18:55.988Z,1017.54
2018-07-24T01:19:21.539Z,1017.56
2018-07-24T01:19:47.109Z,1017.58
2018-07-24T01:20:12.689Z,1017.54
2018-07-24T01:20:38.263Z,1017.54
2018-07-24T01:21:03.846Z,1017.57
2018-07-24T01:21:29.433Z,1017.57
2018-07-24T01:21:55.025Z,1017.58
2018-07-24T01:22:20.595Z,1017.54
2018-07-24T01:22:46.167Z,1017.55
2018-07-24T01:23:11.737Z,1017.56
2018-07-24T01:23:37.330Z,1017.56
2018-07-24T01:24:02.929Z,1017.59
2018-07-24T01:24:28.503Z,1017.55
2018-07-24T01:24:54.071Z,1017.59
2018-07-24T01:25:19.654Z,1017.61
2018-07-24T01:25:45.238Z,1017.58
2018-07-24T01:26:10.803Z,1017.61
2018-07-24T01:26:36.397Z,1017.59
2018-07-24T01:27:01.958Z,1017.55
2018-07-24T01:27:27.556Z,1017.54
2018-07-24T01:27:53.125Z,1017.6
2018-07-24T01:28:18.706Z,1017.55
2018-07-24T01:28:44.277Z,1017.57
2018-07-24T01:29:09.835Z,1017.6
2018-07-24T01:29:35.412Z,1017.59
2018-07-24T01:30:00.993Z,1017.54
2018-07-24T01:30:26.567Z,1017.53
2018-07-24T01:30:52.141Z,1017.56
2018-07-24T01:31:17.717Z,1017.56
2018-07-24T01:31:43.297Z,1017.54
2018-07-24T01:32:08.850Z,1017.54
2018-07-24T01:32:34.423Z,1017.49
2018-07-24T01:33:00.018Z,1017.5
2018-07-24T01:33:25.591Z,1017.52
2018-07-24T01:33:51.183Z,1017.52
2018-07-24T01:34:16.761Z,1017.54
2018-07-24T01:34:42.336Z,1017.53
2018-07-24T01:35:07.909Z,1017.56
2018-07-24T01:35:33.486Z,1017.51
2018-07-24T01:35:59.048Z,1017.5
2018-07-24T01:36:24.636Z,1017.51
2018-07-24T01:36:50.219Z,1017.51
2018-07-24T01:37:15.783Z,1017.52
2018-07-24T01:37:41.384Z,1017.5
2018-07-24T01:38:06.939Z,1017.49
2018-07-24T01:38:32.515Z,1017.51
2018-07-24T01:38:58.084Z,1017.48
2018-07-24T01:39:23.665Z,1017.54
2018-07-24T01:39:49.231Z,1017.51
2018-07-24T01:40:14.799Z,1017.5
2018-07-24T01:40:40.361Z,1017.53
2018-07-24T01:41:05.941Z,1017.48
2018-07-24T01:41:31.521Z,1017.5
2018-07-24T01:41:57.100Z,1017.49
2018-07-24T01:42:22.680Z,1017.51
2018-07-24T01:42:48.235Z,1017.48
2018-07-24T01:43:13.805Z,1017.49
2018-07-24T01:43:39.386Z,1017.47
2018-07-24T01:44:04.955Z,1017.48
2018-07-24T01:44:30.525Z,1017.45
2018-07-24T01:44:56.101Z,1017.45
2018-07-24T01:45:21.664Z,1017.45
2018-07-24T01:45:47.250Z,1017.45
2018-07-24T01:46:12.811Z,1017.48
2018-07-24T01:46:38.382Z,1017.49
2018-07-24T01:47:03.985Z,1017.49
2018-07-24T01:47:29.543Z,1017.48
2018-07-24T01:47:55.113Z,1017.52
2018-07-24T01:48:20.693Z,1017.48
2018-07-24T01:48:46.279Z,1017.5
2018-07-24T01:49:11.826Z,1017.49
2018-07-24T01:49:37.401Z,1017.47
2018-07-24T01:50:02.973Z,1017.5
2018-07-24T01:50:28.549Z,1017.5
2018-07-24T01:50:54.133Z,1017.51
2018-07-24T01:51:19.711Z,1017.47
2018-07-24T01:51:45.281Z,1017.52
2018-07-24T01:52:10.869Z,1017.5
2018-07-24T01:52:36.448Z,1017.5
2018-07-24T01:53:02.015Z,1017.56
2018-07-24T01:53:27.589Z,1017.5
2018-07-24T01:53:53.141Z,1017.55
2018-07-24T01:54:18.731Z,1017.48
2018-07-24T01:54:44.299Z,1017.51
2018-07-24T01:55:09.887Z,1017.51
2018-07-24T01:55:35.447Z,1017.5
2018-07-24T01:56:01.011Z,1017.51
2018-07-24T01:56:26.590Z,1017.49
2018-07-24T01:56:52.161Z,1017.5
2018-07-24T01:57:17.736Z,1017.51
2018-07-24T01:57:43.315Z,1017.5
2018-07-24T01:58:08.901Z,1017.49
2018-07-24T01:58:34.493Z,1017.47
2018-07-24T01:59:00.071Z,1017.47
2018-07-24T01:59:25.644Z,1017.49
2018-07-24T01:59:51.223Z,1017.55
2018-07-24T02:00:16.793Z,1017.49
2018-07-24T02:00:42.364Z,1017.5
2018-07-24T02:01:07.944Z,1017.5
2018-07-24T02:01:33.507Z,1017.51
2018-07-24T02:01:59.120Z,1017.5
2018-07-24T02:02:24.675Z,1017.53
2018-07-24T02:02:50.256Z,1017.51
2018-07-24T02:03:15.824Z,1017.52
2018-07-24T02:03:41.393Z,1017.52
2018-07-24T02:04:06.956Z,1017.51
2018-07-24T02:04:32.536Z,1017.56
2018-07-24T02:04:58.105Z,1017.54
2018-07-24T02:05:23.685Z,1017.58
2018-07-24T02:05:49.277Z,1017.58
2018-07-24T02:06:14.851Z,1017.54
2018-07-24T02:06:40.422Z,1017.57
2018-07-24T02:07:06.009Z,1017.56
2018-07-24T02:07:31.607Z,1017.53
2018-07-24T02:07:57.182Z,1017.53
2018-07-24T02:08:22.763Z,1017.5
2018-07-24T02:08:48.339Z,1017.53
2018-07-24T02:09:13.917Z,1017.54
2018-07-24T02:09:39.480Z,1017.52
2018-07-24T02:10:05.053Z,1017.52
2018-07-24T02:10:30.645Z,1017.55
2018-07-24T02:10:56.203Z,1017.51
2018-07-24T02:11:21.766Z,1017.56
2018-07-24T02:11:47.333Z,1017.52
2018-07-24T02:12:12.898Z,1017.52
2018-07-24T02:12:38.479Z,1017.51
2018-07-24T02:13:04.039Z,1017.5
2018-07-24T02:13:29.623Z,1017.5
2018-07-24T02:13:55.193Z,1017.5
2018-07-24T02:14:20.790Z,1017.52
2018-07-24T02:14:46.363Z,1017.54
2018-07-24T02:15:11.932Z,1017.55
2018-07-24T02:15:37.513Z,1017.51
2018-07-24T02:16:03.079Z,1017.51
2018-07-24T02:16:28.661Z,1017.51
2018-07-24T02:16:54.235Z,1017.51
2018-07-24T02:17:19.827Z,1017.48
2018-07-24T02:17:45.410Z,1017.53
2018-07-24T02:18:10.991Z,1017.5
2018-07-24T02:18:36.561Z,1017.48
2018-07-24T02:19:02.137Z,1017.5
2018-07-24T02:19:27.707Z,1017.53
2018-07-24T02:19:53.275Z,1017.5
2018-07-24T02:20:18.847Z,1017.49
2018-07-24T02:20:44.419Z,1017.5
2018-07-24T02:21:09.977Z,1017.47
2018-07-24T02:21:39.234Z,1017.51
2018-07-24T02:22:04.023Z,1017.47
2018-07-24T02:22:29.602Z,1017.5
2018-07-24T02:22:55.180Z,1017.5
2018-07-24T02:23:20.755Z,1017.49
2018-07-24T02:23:46.341Z,1017.55
2018-07-24T02:24:11.928Z,1017.52
2018-07-24T02:24:37.521Z,1017.47
2018-07-24T02:25:03.103Z,1017.54
2018-07-24T02:25:28.675Z,1017.53
2018-07-24T02:25:54.257Z,1017.53
2018-07-24T02:26:19.837Z,1017.53
2018-07-24T02:26:45.414Z,1017.53
2018-07-24T02:27:10.997Z,1017.5
2018-07-24T02:27:36.561Z,1017.5
2018-07-24T02:28:02.139Z,1017.53
2018-07-24T02:28:27.723Z,1017.53
2018-07-24T02:28:53.290Z,1017.53
2018-07-24T02:29:18.881Z,1017.53
2018-07-24T02:29:44.469Z,1017.5
2018-07-24T02:30:10.042Z,1017.52
2018-07-24T02:30:35.599Z,1017.5
2018-07-24T02:31:01.158Z,1017.54
2018-07-24T02:31:26.728Z,1017.49
2018-07-24T02:31:52.331Z,1017.55
2018-07-24T02:32:17.913Z,1017.52
2018-07-24T02:32:43.524Z,1017.51
2018-07-24T02:33:09.110Z,1017.56
2018-07-24T02:33:34.691Z,1017.53
2018-07-24T02:34:00.279Z,1017.52
2018-07-24T02:34:25.835Z,1017.52
2018-07-24T02:34:51.407Z,1017.51
2018-07-24T02:35:16.993Z,1017.55
2018-07-24T02:35:42.550Z,1017.56
2018-07-24T02:36:08.122Z,1017.52
2018-07-24T02:36:33.685Z,1017.54
2018-07-24T02:36:59.264Z,1017.51
2018-07-24T02:37:24.849Z,1017.51
2018-07-24T02:37:50.421Z,1017.49
2018-07-24T02:38:15.991Z,1017.55
2018-07-24T02:38:41.559Z,1017.52
2018-07-24T02:39:07.129Z,1017.48
2018-07-24T02:39:32.705Z,1017.5
2018-07-24T02:39:58.281Z,1017.5
2018-07-24T02:40:23.861Z,1017.52
2018-07-24T02:40:49.422Z,1017.49
2018-07-24T02:41:14.995Z,1017.49
2018-07-24T02:41:40.603Z,1017.47
2018-07-24T02:42:06.189Z,1017.48
2018-07-24T02:42:31.769Z,1017.47
2018-07-24T02:42:57.352Z,1017.48
2018-07-24T02:43:22.928Z,1017.46
2018-07-24T02:43:48.501Z,1017.48
2018-07-24T02:44:14.092Z,1017.46
2018-07-24T02:44:39.669Z,1017.49
2018-07-24T02:45:05.241Z,1017.46
2018-07-24T02:45:30.819Z,1017.46
2018-07-24T02:45:56.389Z,1017.48
2018-07-24T02:46:21.991Z,1017.47
2018-07-24T02:46:47.547Z,1017.47
2018-07-24T02:47:13.121Z,1017.44
2018-07-24T02:47:38.709Z,1017.45
2018-07-24T02:48:04.278Z,1017.49
2018-07-24T02:48:29.854Z,1017.47
2018-07-24T02:48:55.416Z,1017.47
2018-07-24T02:49:20.989Z,1017.44
2018-07-24T02:49:46.586Z,1017.43
2018-07-24T02:50:12.279Z,1017.46
2018-07-24T02:50:37.841Z,1017.43
2018-07-24T02:51:03.420Z,1017.48
2018-07-24T02:51:29.001Z,1017.47
2018-07-24T02:51:54.583Z,1017.49
2018-07-24T02:52:20.154Z,1017.45
2018-07-24T02:52:45.729Z,1017.46
2018-07-24T02:53:11.296Z,1017.44
2018-07-24T02:53:36.870Z,1017.44
2018-07-24T02:54:02.485Z,1017.47
2018-07-24T02:54:28.067Z,1017.44
2018-07-24T02:54:53.632Z,1017.45
2018-07-24T02:55:19.193Z,1017.46
2018-07-24T02:55:44.773Z,1017.42
2018-07-24T02:56:10.341Z,1017.44
2018-07-24T02:56:35.919Z,1017.41
2018-07-24T02:57:01.491Z,1017.35
2018-07-24T02:57:27.059Z,1017.42
2018-07-24T02:57:52.630Z,1017.38
2018-07-24T02:58:18.197Z,1017.37
2018-07-24T02:58:43.815Z,1017.35
2018-07-24T02:59:09.393Z,1017.38
2018-07-24T02:59:34.974Z,1017.38
2018-07-24T03:00:00.528Z,1017.36
2018-07-24T03:00:26.119Z,1017.38
2018-07-24T03:00:51.694Z,1017.34
2018-07-24T03:01:17.271Z,1017.36
2018-07-24T03:01:42.850Z,1017.33
2018-07-24T03:02:08.423Z,1017.37
2018-07-24T03:02:33.987Z,1017.3
2018-07-24T03:02:59.567Z,1017.34
2018-07-24T03:03:25.115Z,1017.34
2018-07-24T03:03:50.685Z,1017.32
2018-07-24T03:04:16.255Z,1017.3
2018-07-24T03:04:41.815Z,1017.33
2018-07-24T03:05:07.388Z,1017.34
2018-07-24T03:05:32.962Z,1017.34
2018-07-24T03:05:58.523Z,1017.35
2018-07-24T03:06:24.107Z,1017.34
2018-07-24T03:06:49.673Z,1017.34
2018-07-24T03:07:15.271Z,1017.35
2018-07-24T03:07:40.830Z,1017.35
2018-07-24T03:08:06.389Z,1017.36
2018-07-24T03:08:31.960Z,1017.39
2018-07-24T03:08:57.533Z,1017.4
2018-07-24T03:09:23.103Z,1017.35
2018-07-24T03:09:48.695Z,1017.34
2018-07-24T03:10:14.269Z,1017.38
2018-07-24T03:10:39.821Z,1017.36
2018-07-24T03:11:05.402Z,1017.37
2018-07-24T03:11:30.997Z,1017.35
2018-07-24T03:11:56.539Z,1017.36
2018-07-24T03:12:22.105Z,1017.35
2018-07-24T03:12:47.678Z,1017.33
2018-07-24T03:13:13.258Z,1017.35
2018-07-24T03:13:38.822Z,1017.36
2018-07-24T03:14:04.397Z,1017.36
2018-07-24T03:14:29.979Z,1017.34
2018-07-24T03:14:55.539Z,1017.36
2018-07-24T03:15:21.109Z,1017.33
2018-07-24T03:15:46.679Z,1017.32
2018-07-24T03:16:12.320Z,1017.34
2018-07-24T03:16:37.859Z,1017.33
2018-07-24T03:17:03.428Z,1017.31
2018-07-24T03:17:29.001Z,1017.27
2018-07-24T03:17:54.575Z,1017.29
2018-07-24T03:18:20.131Z,1017.31
2018-07-24T03:18:45.701Z,1017.32
2018-07-24T03:19:11.271Z,1017.28
2018-07-24T03:19:36.844Z,1017.24
2018-07-24T03:20:02.411Z,1017.28
2018-07-24T03:20:27.985Z,1017.31
2018-07-24T03:20:53.585Z,1017.29
2018-07-24T03:21:19.189Z,1017.3
2018-07-24T03:21:44.753Z,1017.26
2018-07-24T03:22:10.315Z,1017.29
2018-07-24T03:22:35.892Z,1017.29
2018-07-24T03:23:01.459Z,1017.25
2018-07-24T03:23:27.043Z,1017.27
2018-07-24T03:23:52.619Z,1017.27
2018-07-24T03:24:18.174Z,1017.29
2018-07-24T03:24:43.754Z,1017.25
2018-07-24T03:25:09.325Z,1017.23
2018-07-24T03:25:34.913Z,1017.27
2018-07-24T03:26:00.467Z,1017.24
2018-07-24T03:26:26.046Z,1017.22
2018-07-24T03:26:51.640Z,1017.26
2018-07-24T03:27:17.224Z,1017.22
2018-07-24T03:27:42.787Z,1017.23
2018-07-24T03:28:08.371Z,1017.24
2018-07-24T03:28:33.972Z,1017.24
2018-07-24T03:28:59.520Z,1017.23
2018-07-24T03:29:25.082Z,1017.22
2018-07-24T03:29:50.658Z,1017.25
2018-07-24T03:30:16.229Z,1017.22
2018-07-24T03:30:41.797Z,1017.25
2018-07-24T03:31:07.367Z,1017.24
2018-07-24T03:31:32.954Z,1017.23
2018-07-24T03:31:58.524Z,1017.23
2018-07-24T03:32:24.107Z,1017.27
2018-07-24T03:32:49.685Z,1017.24
2018-07-24T03:33:15.269Z,1017.22
2018-07-24T03:33:40.852Z,1017.27
2018-07-24T03:34:06.445Z,1017.24
2018-07-24T03:34:32.011Z,1017.26
2018-07-24T03:34:57.578Z,1017.27
2018-07-24T03:35:23.143Z,1017.22
2018-07-24T03:35:48.707Z,1017.27
2018-07-24T03:36:14.274Z,1017.25
2018-07-24T03:36:39.845Z,1017.25
2018-07-24T03:37:05.413Z,1017.28
2018-07-24T03:37:30.970Z,1017.26
2018-07-24T03:37:56.548Z,1017.27
2018-07-24T03:38:22.163Z,1017.31
2018-07-24T03:38:47.718Z,1017.27
2018-07-24T03:39:13.281Z,1017.27
2018-07-24T03:39:38.906Z,1017.32
2018-07-24T03:40:04.453Z,1017.26
2018-07-24T03:40:30.028Z,1017.3
2018-07-24T03:40:55.573Z,1017.29
2018-07-24T03:41:21.154Z,1017.3
2018-07-24T03:41:46.732Z,1017.28
2018-07-24T03:42:12.310Z,1017.31
2018-07-24T03:42:37.885Z,1017.33
2018-07-24T03:43:03.474Z,1017.32
2018-07-24T03:43:29.072Z,1017.34
2018-07-24T03:43:54.644Z,1017.35
2018-07-24T03:44:20.227Z,1017.36
2018-07-24T03:44:45.801Z,1017.32
2018-07-24T03:45:11.499Z,1017.38
2018-07-24T03:45:36.945Z,1017.33
2018-07-24T03:46:02.519Z,1017.31
2018-07-24T03:46:28.095Z,1017.35
2018-07-24T03:46:53.656Z,1017.32
2018-07-24T03:47:19.222Z,1017.35
2018-07-24T03:47:44.800Z,1017.36
2018-07-24T03:48:10.372Z,1017.31
2018-07-24T03:48:35.946Z,1017.37
2018-07-24T03:49:01.512Z,1017.35
2018-07-24T03:49:27.068Z,1017.35
2018-07-24T03:49:52.641Z,1017.34
2018-07-24T03:50:18.212Z,1017.37
2018-07-24T03:50:43.772Z,1017.32
2018-07-24T03:51:09.353Z,1017.34
2018-07-24T03:51:34.920Z,1017.36
2018-07-24T03:52:00.504Z,1017.35
2018-07-24T03:52:26.071Z,1017.4
2018-07-24T03:52:51.645Z,1017.4
2018-07-24T03:53:17.240Z,1017.32
2018-07-24T03:53:42.813Z,1017.35
2018-07-24T03:54:08.397Z,1017.36
2018-07-24T03:54:33.959Z,1017.39
2018-07-24T03:54:59.529Z,1017.39
2018-07-24T03:55:25.106Z,1017.37
2018-07-24T03:55:50.681Z,1017.37
2018-07-24T03:56:16.263Z,1017.42
2018-07-24T03:56:41.832Z,1017.4
2018-07-24T03:57:07.431Z,1017.39
2018-07-24T03:57:33.013Z,1017.41
2018-07-24T03:57:58.689Z,1017.41
2018-07-24T03:58:24.214Z,1017.42
2018-07-24T03:58:49.793Z,1017.42
2018-07-24T03:59:15.362Z,1017.38
2018-07-24T03:59:40.956Z,1017.4
2018-07-24T04:00:06.515Z,1017.41
2018-07-24T04:00:32.128Z,1017.39
2018-07-24T04:00:57.702Z,1017.43
2018-07-24T04:01:23.277Z,1017.42
2018-07-24T04:01:48.837Z,1017.41
2018-07-24T04:02:14.439Z,1017.39
2018-07-24T04:02:39.967Z,1017.41
2018-07-24T04:03:05.531Z,1017.42
2018-07-24T04:03:31.112Z,1017.42
2018-07-24T04:03:56.681Z,1017.41
2018-07-24T04:04:22.263Z,1017.37
2018-07-24T04:04:47.881Z,1017.41
2018-07-24T04:05:13.473Z,1017.44
2018-07-24T04:05:39.049Z,1017.45
2018-07-24T04:06:04.627Z,1017.42
2018-07-24T04:06:30.512Z,1017.39
2018-07-24T04:06:55.973Z,1017.42
2018-07-24T04:07:21.582Z,1017.4
2018-07-24T04:07:47.154Z,1017.42
2018-07-24T04:08:12.760Z,1017.37
2018-07-24T04:08:38.315Z,1017.38
2018-07-24T04:09:03.879Z,1017.36
2018-07-24T04:09:29.462Z,1017.38
2018-07-24T04:09:55.034Z,1017.34
2018-07-24T04:10:20.611Z,1017.31
2018-07-24T04:10:46.177Z,1017.31
2018-07-24T04:11:11.777Z,1017.33
2018-07-24T04:11:37.359Z,1017.33
2018-07-24T04:12:02.931Z,1017.32
2018-07-24T04:12:28.508Z,1017.3
2018-07-24T04:12:54.074Z,1017.3
2018-07-24T04:13:19.647Z,1017.3
2018-07-24T04:13:45.204Z,1017.28
2018-07-24T04:14:10.763Z,1017.26
2018-07-24T04:14:36.336Z,1017.27
2018-07-24T04:15:01.919Z,1017.28
2018-07-24T04:15:28.534Z,1017.29
2018-07-24T04:15:54.120Z,1017.23
2018-07-24T04:16:19.742Z,1017.25
2018-07-24T04:16:45.321Z,1017.25
2018-07-24T04:17:10.887Z,1017.26
2018-07-24T04:17:36.456Z,1017.24
2018-07-24T04:18:02.029Z,1017.22
2018-07-24T04:18:27.618Z,1017.24
2018-07-24T04:18:53.182Z,1017.2
2018-07-24T04:19:18.758Z,1017.25
2018-07-24T04:19:44.346Z,1017.2
2018-07-24T04:20:09.913Z,1017.23
2018-07-24T04:20:35.488Z,1017.21
2018-07-24T04:21:01.258Z,1017.21
2018-07-24T04:21:26.823Z,1017.22
2018-07-24T04:21:52.393Z,1017.25
2018-07-24T04:22:17.957Z,1017.22
2018-07-24T04:22:43.525Z,1017.25
2018-07-24T04:23:09.121Z,1017.22
2018-07-24T04:23:34.695Z,1017.23
2018-07-24T04:24:00.269Z,1017.19
2018-07-24T04:24:25.834Z,1017.2
2018-07-24T04:24:51.410Z,1017.18
2018-07-24T04:25:16.986Z,1017.2
2018-07-24T04:25:42.567Z,1017.21
2018-07-24T04:26:08.134Z,1017.16
2018-07-24T04:26:33.729Z,1017.17
2018-07-24T04:26:59.291Z,1017.19
2018-07-24T04:27:24.883Z,1017.18
2018-07-24T04:27:50.441Z,1017.21
2018-07-24T04:28:16.023Z,1017.18
2018-07-24T04:28:41.587Z,1017.2
2018-07-24T04:29:07.157Z,1017.17
2018-07-24T04:29:32.744Z,1017.17
2018-07-24T04:29:58.313Z,1017.2
2018-07-24T04:30:23.898Z,1017.19
2018-07-24T04:30:49.527Z,1017.23
2018-07-24T04:31:15.082Z,1017.17
2018-07-24T04:31:40.619Z,1017.17
2018-07-24T04:32:06.181Z,1017.15
2018-07-24T04:32:31.765Z,1017.18
2018-07-24T04:32:57.331Z,1017.18
2018-07-24T04:33:22.911Z,1017.19
2018-07-24T04:33:48.491Z,1017.22
2018-07-24T04:34:14.055Z,1017.19
2018-07-24T04:34:39.630Z,1017.18
2018-07-24T04:35:05.215Z,1017.23
2018-07-24T04:35:30.781Z,1017.21
2018-07-24T04:35:56.342Z,1017.19
2018-07-24T04:36:21.908Z,1017.23
2018-07-24T04:36:47.484Z,1017.22
2018-07-24T04:37:13.057Z,1017.23
2018-07-24T04:37:38.625Z,1017.24
2018-07-24T04:38:04.250Z,1017.22
2018-07-24T04:38:29.831Z,1017.25
2018-07-24T04:38:55.424Z,1017.26
2018-07-24T04:39:21.001Z,1017.29
2018-07-24T04:39:46.615Z,1017.23
2018-07-24T04:40:12.162Z,1017.24
2018-07-24T04:40:37.753Z,1017.26
2018-07-24T04:41:03.321Z,1017.23
2018-07-24T04:41:28.896Z,1017.23
2018-07-24T04:41:54.460Z,1017.24
2018-07-24T04:42:20.040Z,1017.24
2018-07-24T04:42:45.594Z,1017.25
2018-07-24T04:43:11.162Z,1017.24
2018-07-24T04:43:36.737Z,1017.25
2018-07-24T04:44:02.307Z,1017.24
2018-07-24T04:44:27.950Z,1017.26
2018-07-24T04:44:53.514Z,1017.21
2018-07-24T04:45:19.086Z,1017.21
2018-07-24T04:45:44.655Z,1017.21
2018-07-24T04:46:10.238Z,1017.24
2018-07-24T04:46:35.807Z,1017.18
2018-07-24T04:47:01.391Z,1017.25
2018-07-24T04:47:26.952Z,1017.22
2018-07-24T04:47:52.544Z,1017.23
2018-07-24T04:48:18.116Z,1017.23
2018-07-24T04:48:43.681Z,1017.2
2018-07-24T04:49:09.261Z,1017.2
2018-07-24T04:49:34.832Z,1017.22
2018-07-24T04:50:00.400Z,1017.25
2018-07-24T04:50:25.968Z,1017.25
2018-07-24T04:50:51.558Z,1017.23
2018-07-24T04:51:17.122Z,1017.23
2018-07-24T04:51:42.702Z,1017.26
2018-07-24T04:52:08.266Z,1017.25
2018-07-24T04:52:33.846Z,1017.26
2018-07-24T04:52:59.444Z,1017.23
2018-07-24T04:53:25.020Z,1017.29
2018-07-24T04:53:50.588Z,1017.22
2018-07-24T04:54:16.160Z,1017.25
2018-07-24T04:54:41.752Z,1017.26
2018-07-24T04:55:07.364Z,1017.26
2018-07-24T04:55:32.960Z,1017.26
2018-07-24T04:55:58.541Z,1017.25
2018-07-24T04:56:24.124Z,1017.29
2018-07-24T04:56:49.708Z,1017.28
2018-07-24T04:57:15.272Z,1017.28
2018-07-24T04:57:40.850Z,1017.33
2018-07-24T04:58:06.405Z,1017.29
2018-07-24T04:58:31.992Z,1017.28
2018-07-24T04:58:57.553Z,1017.26
2018-07-24T04:59:23.123Z,1017.24
2018-07-24T04:59:48.690Z,1017.27
2018-07-24T05:00:14.262Z,1017.26
2018-07-24T05:00:39.838Z,1017.25
2018-07-24T05:01:05.406Z,1017.29
2018-07-24T05:01:30.968Z,1017.26
2018-07-24T05:01:56.556Z,1017.27
2018-07-24T05:02:22.124Z,1017.27
2018-07-24T05:02:47.700Z,1017.25
2018-07-24T05:03:13.324Z,1017.26
2018-07-24T05:03:38.849Z,1017.27
2018-07-24T05:04:04.424Z,1017.26
2018-07-24T05:04:29.997Z,1017.3
2018-07-24T05:04:55.564Z,1017.31
2018-07-24T05:05:21.152Z,1017.29
2018-07-24T05:05:46.722Z,1017.28
2018-07-24T05:06:12.294Z,1017.28
2018-07-24T05:06:37.864Z,1017.28
2018-07-24T05:07:03.462Z,1017.28
2018-07-24T05:07:29.024Z,1017.3
2018-07-24T05:07:54.584Z,1017.31
2018-07-24T05:08:20.146Z,1017.31
2018-07-24T05:08:45.739Z,1017.31
2018-07-24T05:09:11.318Z,1017.29
2018-07-24T05:09:36.924Z,1017.3
2018-07-24T05:10:02.462Z,1017.29
2018-07-24T05:10:28.034Z,1017.26